Pacific Princess — ZCDS3 — position and weather

sailwx.info

Track history (hours):
 
Tides and Currents Weather Stations Pressure Air Temp Water Temp Dewpoint Dewpoint Depression Visibility Wind Speed Wind Dir Waves Ship Positions

Pacific Princess (Bermuda)

Last reported at 2017-May-22 22:00 UTC. Time now 2017-May-25 02:59 UTC.
Position N 09°31' W 079°51'.

Length 180.5 m; beam 25.6 m; draft 6 m.

Type: Passenger vessel. MMSI: 310504000.

Date/timePositionNaut miles runAvg speedWind from/ knotsBaromVisibWave heightAir tempDewpointWater temp
2017-May-22 22:00N 09°31' W 079°51'613.1
2017-May-22 21:30N 09°25' W 079°55'611.1
2017-May-22 21:00N 09°20' W 079°55'3 4.6
2017-May-22 20:15N 09°16' W 079°55'0 0.5
2017-May-22 19:48N 09°16' W 079°55'0 1.7
2017-May-22 19:30N 09°16' W 079°55'3 5.1
2017-May-22 18:58N 09°13' W 079°55'  
2017-May-20 06:00N 10°18' W 085°54'   040 / 41009.110.8 27.024.127.0
2017-May-13 10:31N 32°07' W 117°35'316.0
2017-May-13 10:19N 32°10' W 117°36'516.1
2017-May-13 10:01N 32°14' W 117°38'816.1
2017-May-13 09:31N 32°22' W 117°41'815.6
2017-May-13 09:00N 32°29' W 117°44'815.7
2017-May-13 08:30N 32°37' W 117°48'816.3
2017-May-13 08:01N 32°44' W 117°51'816.1
2017-May-13 07:30N 32°52' W 117°54'815.9
2017-May-13 07:00N 32°59' W 117°58'815.6
2017-May-13 06:30N 33°07' W 118°01'816.3
2017-May-13 06:01N 33°14' W 118°04'816.2
2017-May-13 05:30N 33°22' W 118°08'612.9
2017-May-13 05:00N 33°28' W 118°10'612.0
2017-May-13 04:30N 33°34' W 118°13'812.0
2017-May-13 03:52N 33°41' W 118°15'3 7.7
2017-May-13 03:30N 33°44' W 118°16'  
Track history (hours):
 
Tides and Currents Weather Stations Pressure Air Temp Water Temp Dewpoint Dewpoint Depression Visibility Wind Speed Wind Dir Waves Ship Positions

Pacific Princess (Bermuda)

Last reported at 2017-May-22 22:00 UTC. Time now 2017-May-25 02:59 UTC.
Position N 09°31' W 079°51'.

Length 180.5 m; beam 25.6 m; draft 6 m.

Type: Passenger vessel. MMSI: 310504000.

Date/timePositionNaut miles runAvg speedWind from/ knotsBaromVisibWave heightAir tempDewpointWater temp
2017-May-22 22:00N 09°31' W 079°51'613.1
2017-May-22 21:30N 09°25' W 079°55'611.1
2017-May-22 21:00N 09°20' W 079°55'3 4.6
2017-May-22 20:15N 09°16' W 079°55'0 0.5
2017-May-22 19:48N 09°16' W 079°55'0 1.7
2017-May-22 19:30N 09°16' W 079°55'3 5.1
2017-May-22 18:58N 09°13' W 079°55'  
2017-May-20 06:00N 10°18' W 085°54'   040 / 41009.110.8 27.024.127.0
2017-May-13 10:31N 32°07' W 117°35'316.0
2017-May-13 10:19N 32°10' W 117°36'516.1
2017-May-13 10:01N 32°14' W 117°38'816.1
2017-May-13 09:31N 32°22' W 117°41'815.6
2017-May-13 09:00N 32°29' W 117°44'815.7
2017-May-13 08:30N 32°37' W 117°48'816.3
2017-May-13 08:01N 32°44' W 117°51'816.1
2017-May-13 07:30N 32°52' W 117°54'815.9
2017-May-13 07:00N 32°59' W 117°58'815.6
2017-May-13 06:30N 33°07' W 118°01'816.3
2017-May-13 06:01N 33°14' W 118°04'816.2
2017-May-13 05:30N 33°22' W 118°08'612.9
2017-May-13 05:00N 33°28' W 118°10'612.0
2017-May-13 04:30N 33°34' W 118°13'812.0
2017-May-13 03:52N 33°41' W 118°15'3 7.7
2017-May-13 03:30N 33°44' W 118°16'  

Dump ship's entire track history